Time;durP1;ratioP1;P1;durP2;ratioP2;P2;SDS_P1;SDS_P2;PMS_P1;PMS_P2;Temp;Humidity;BMP_temperature;BMP_pressure;BME280_temperature;BME280_humidity;BME280_pressure;Samples;Min_cycle;Max_cycle;Signal;HPM_P1;HPM_P2
2024/01/07 00:01:43;;;;;;;5.07;3.10;;;-3.00;99.90;-4.30;100746;;;;550338;256;24195;-78
2024/01/07 00:04:09;;;;;;;4.43;2.27;;;-3.10;99.90;-4.30;100753;;;;533565;265;24208;-78
2024/01/07 00:06:37;;;;;;;4.10;2.90;;;-3.10;99.90;-4.30;100761;;;;553126;259;24158;-79
2024/01/07 00:09:06;;;;;;;2.20;2.03;;;-3.10;99.90;-4.30;100758;;;;545065;259;24180;-77
2024/01/07 00:11:34;;;;;;;2.37;1.77;;;-3.10;99.90;-4.30;100758;;;;545655;259;24303;-77
2024/01/07 00:14:02;;;;;;;2.17;1.57;;;-3.10;99.90;-4.30;100763;;;;546702;259;24163;-78
2024/01/07 00:16:30;;;;;;;2.10;1.90;;;-3.10;99.90;-4.30;100769;;;;547870;256;24125;-77
2024/01/07 00:18:58;;;;;;;4.93;3.27;;;-3.00;99.90;-4.30;100779;;;;547701;261;24149;-78
2024/01/07 00:21:28;;;;;;;2.40;2.20;;;-3.00;99.90;-4.30;100772;;;;552257;256;24159;-79
2024/01/07 00:23:53;;;;;;;1.90;1.80;;;-3.00;99.90;-4.30;100776;;;;538138;260;35705;-78
2024/01/07 00:26:21;;;;;;;1.33;1.20;;;-3.00;99.90;-4.30;100773;;;;553644;256;24156;-78
2024/01/07 00:28:49;;;;;;;1.70;1.60;;;-3.00;99.90;-4.30;100773;;;;548942;261;24217;-78
2024/01/07 00:31:17;;;;;;;3.83;2.13;;;-3.00;99.90;-4.30;100776;;;;553116;256;24139;-80
2024/01/07 00:33:46;;;;;;;3.70;2.60;;;-3.00;99.90;-4.30;100780;;;;548867;261;25165;-80
2024/01/07 00:36:15;;;;;;;2.73;2.50;;;-3.00;99.90;-4.30;100779;;;;564425;253;24129;-79
2024/01/07 00:38:42;;;;;;;3.13;2.93;;;-3.00;99.90;-4.30;100779;;;;552611;256;24182;-82
2024/01/07 00:41:10;;;;;;;2.10;1.70;;;-3.00;99.90;-4.30;100785;;;;558069;256;24144;-82
2024/01/07 00:43:41;;;;;;;5.03;2.97;;;-3.00;99.90;-4.30;100788;;;;557706;256;24157;-81
2024/01/07 00:46:06;;;;;;;2.70;2.50;;;-3.00;99.90;-4.30;100791;;;;551626;256;25208;-81
2024/01/07 00:48:34;;;;;;;3.43;2.50;;;-3.00;99.90;-4.30;100780;;;;558265;256;24133;-80
2024/01/07 00:51:06;;;;;;;1.97;1.77;;;-3.10;99.90;-4.30;100781;;;;558327;256;24199;-81
2024/01/07 00:53:30;;;;;;;2.50;2.30;;;-3.10;99.90;-4.40;100793;;;;554800;255;24164;-80
2024/01/07 00:55:59;;;;;;;2.50;2.13;;;-3.10;99.90;-4.40;100796;;;;558381;256;24132;-81
2024/01/07 00:58:27;;;;;;;2.70;1.80;;;-3.20;99.90;-4.40;100796;;;;558283;256;24180;-82
2024/01/07 01:00:55;;;;;;;3.10;2.80;;;-3.20;99.90;-4.40;100791;;;;558345;256;25198;-80
2024/01/07 01:03:23;;;;;;;3.00;2.65;;;-3.20;99.90;-4.50;100797;;;;553313;256;35551;-80
2024/01/07 01:05:51;;;;;;;1.60;1.50;;;-3.20;99.90;-4.50;100799;;;;558880;256;24188;-82
2024/01/07 01:08:23;;;;;;;1.47;1.37;;;-3.20;99.90;-4.50;100794;;;;559055;256;24150;-81
2024/01/07 01:10:47;;;;;;;3.17;2.70;;;-3.20;99.90;-4.50;100801;;;;557828;256;24171;-81
2024/01/07 01:13:15;;;;;;;2.97;2.63;;;-3.20;99.90;-4.50;100798;;;;558177;256;24156;-78
2024/01/07 01:15:43;;;;;;;3.60;3.30;;;-3.20;99.90;-4.50;100801;;;;558038;256;24207;-81
2024/01/07 01:18:11;;;;;;;2.67;2.27;;;-3.30;99.90;-4.50;100806;;;;558182;256;24148;-80
2024/01/07 01:20:40;;;;;;;2.53;2.33;;;-3.20;99.90;-4.50;100805;;;;558106;256;24163;-78
2024/01/07 01:23:08;;;;;;;2.90;2.60;;;-3.30;99.90;-4.50;100814;;;;552410;256;24244;-80
2024/01/07 01:25:36;;;;;;;2.90;2.57;;;-3.30;99.90;-4.60;100806;;;;558131;256;24143;-79
2024/01/07 01:28:04;;;;;;;2.10;1.90;;;-3.30;99.90;-4.60;100809;;;;557529;256;24154;-78
2024/01/07 01:30:32;;;;;;;3.07;2.87;;;-3.30;99.90;-4.50;100810;;;;550609;256;24137;-80
2024/01/07 01:33:00;;;;;;;2.87;2.67;;;-3.30;99.90;-4.50;100816;;;;557561;256;24146;-78
2024/01/07 01:35:28;;;;;;;3.27;2.90;;;-3.30;99.90;-4.50;100817;;;;558566;255;24146;-80
2024/01/07 01:37:55;;;;;;;4.20;3.80;;;-3.30;99.90;-4.50;100811;;;;559668;256;24143;-79
2024/01/07 01:40:23;;;;;;;3.83;3.53;;;-3.30;99.90;-4.60;100815;;;;553362;256;24162;-80
2024/01/07 01:42:51;;;;;;;3.07;2.57;;;-3.40;99.90;-4.60;100808;;;;558900;256;24153;-80
2024/01/07 01:45:19;;;;;;;3.83;3.53;;;-3.40;99.90;-4.60;100807;;;;558625;256;24139;-79
2024/01/07 01:47:51;;;;;;;3.43;2.77;;;-3.40;99.90;-4.70;100808;;;;561135;255;24141;-79
2024/01/07 01:50:18;;;;;;;3.30;3.00;;;-3.50;99.90;-4.70;100811;;;;560051;256;24155;-80
2024/01/07 01:52:44;;;;;;;3.67;3.13;;;-3.50;99.90;-4.80;100813;;;;552346;256;24167;-78
2024/01/07 01:55:11;;;;;;;4.17;3.80;;;-3.50;99.90;-4.80;100811;;;;558363;256;25175;-80
2024/01/07 01:57:39;;;;;;;3.80;3.40;;;-3.50;99.90;-4.80;100799;;;;558268;256;24179;-79
2024/01/07 02:00:08;;;;;;;4.97;4.37;;;-3.60;99.90;-4.90;100820;;;;552002;256;24141;-80
2024/01/07 02:02:35;;;;;;;5.00;4.27;;;-3.60;99.90;-4.90;100825;;;;552469;256;24156;-79
2024/01/07 02:05:03;;;;;;;4.87;4.13;;;-3.70;99.90;-5.00;100826;;;;558490;256;24129;-80
2024/01/07 02:07:31;;;;;;;4.00;3.60;;;-3.80;99.90;-5.00;100828;;;;552521;256;24158;-79
2024/01/07 02:09:58;;;;;;;5.30;3.90;;;-3.80;99.90;-5.00;100818;;;;555569;256;24129;-79
2024/01/07 02:12:26;;;;;;;5.83;4.43;;;-3.80;99.90;-5.00;100831;;;;552054;256;24148;-79
2024/01/07 02:14:54;;;;;;;5.73;3.90;;;-3.80;99.90;-5.00;100828;;;;558126;256;24157;-79
2024/01/07 02:17:22;;;;;;;4.37;3.77;;;-3.80;99.90;-5.10;100827;;;;558200;256;24155;-80
2024/01/07 02:19:50;;;;;;;9.03;4.30;;;-3.90;99.90;-5.10;100833;;;;558127;256;24133;-79
2024/01/07 02:22:18;;;;;;;4.37;3.87;;;-3.90;99.90;-5.10;100828;;;;558278;256;24140;-79
2024/01/07 02:24:47;;;;;;;3.80;3.50;;;-4.00;99.90;-5.20;100835;;;;558169;255;24134;-78
2024/01/07 02:27:15;;;;;;;4.10;3.67;;;-4.00;99.90;-5.20;100832;;;;558045;251;25219;-79
2024/01/07 02:29:43;;;;;;;5.97;4.40;;;-4.00;99.90;-5.20;100834;;;;558172;256;24137;-79
2024/01/07 02:32:11;;;;;;;4.17;3.07;;;-4.00;99.90;-5.30;100832;;;;558101;256;24152;-80
2024/01/07 02:34:39;;;;;;;3.50;3.17;;;-4.10;99.90;-5.40;100830;;;;558217;256;24151;-79
2024/01/07 02:37:07;;;;;;;6.83;4.63;;;-4.10;99.90;-5.30;100832;;;;557674;256;24175;-79
2024/01/07 02:39:35;;;;;;;6.00;4.80;;;-4.10;99.90;-5.30;100835;;;;558487;256;24156;-79
2024/01/07 02:42:06;;;;;;;3.97;3.60;;;-4.10;99.90;-5.40;100834;;;;552495;256;24153;-78
2024/01/07 02:44:31;;;;;;;4.93;4.13;;;-4.10;99.90;-5.40;100838;;;;551733;256;24166;-79
2024/01/07 02:46:59;;;;;;;6.57;4.03;;;-4.10;99.90;-5.40;100836;;;;558129;255;24131;-79
2024/01/07 02:49:27;;;;;;;6.03;4.30;;;-4.20;99.90;-5.40;100837;;;;558959;256;24197;-79
2024/01/07 02:51:55;;;;;;;6.50;4.80;;;-4.20;99.90;-5.40;100843;;;;559291;256;24139;-81
2024/01/07 02:54:26;;;;;;;6.17;4.90;;;-4.20;99.90;-5.50;100850;;;;559023;256;24154;-79
2024/01/07 02:56:51;;;;;;;8.80;4.60;;;-4.20;99.90;-5.40;100853;;;;558166;256;24216;-79
2024/01/07 02:59:19;;;;;;;6.10;4.33;;;-4.20;99.90;-5.40;100844;;;;548690;261;24200;-79
2024/01/07 03:01:47;;;;;;;7.73;5.00;;;-4.30;99.90;-5.50;100837;;;;552813;256;24155;-79
2024/01/07 03:04:19;;;;;;;4.63;3.73;;;-4.30;99.90;-5.60;100838;;;;548738;261;24144;-80
2024/01/07 03:06:43;;;;;;;6.23;4.27;;;-4.30;99.90;-5.60;100845;;;;559937;256;24167;-80
2024/01/07 03:09:11;;;;;;;6.63;4.83;;;-4.40;99.90;-5.60;100826;;;;548767;261;24159;-81
2024/01/07 03:11:44;;;;;;;4.83;3.73;;;-4.40;99.90;-5.60;100837;;;;553099;256;24147;-80
2024/01/07 03:14:10;;;;;;;5.03;4.10;;;-4.30;99.90;-5.60;100837;;;;560076;256;24132;-80
2024/01/07 03:16:39;;;;;;;5.90;4.10;;;-4.40;99.90;-5.60;100833;;;;552763;256;24194;-80
2024/01/07 03:19:07;;;;;;;5.23;4.17;;;-4.40;99.90;-5.60;100839;;;;548386;261;24141;-81
2024/01/07 03:21:35;;;;;;;4.30;3.80;;;-4.40;99.90;-5.60;100826;;;;552382;256;24199;-80
2024/01/07 03:24:03;;;;;;;6.67;5.20;;;-4.30;99.90;-5.60;100844;;;;548331;261;24148;-80
2024/01/07 03:26:34;;;;;;;5.17;4.00;;;-4.40;99.90;-5.60;100845;;;;551981;256;24152;-81
2024/01/07 03:29:02;;;;;;;4.33;3.93;;;-4.40;99.90;-5.70;100836;;;;551848;256;24185;-82
2024/01/07 03:31:33;;;;;;;5.37;4.20;;;-4.40;99.90;-5.70;100839;;;;553299;256;35587;-80
2024/01/07 03:33:58;;;;;;;3.37;3.00;;;-4.40;99.90;-5.60;100844;;;;551828;256;24152;-80
2024/01/07 03:36:26;;;;;;;6.17;4.57;;;-4.30;99.90;-5.60;100844;;;;557871;256;24153;-81
2024/01/07 03:38:54;;;;;;;6.07;4.60;;;-4.40;99.90;-5.60;100838;;;;558075;256;24150;-80
2024/01/07 03:41:24;;;;;;;5.77;4.60;;;-4.40;99.90;-5.70;100848;;;;559015;256;24167;-81
2024/01/07 03:43:50;;;;;;;4.30;3.53;;;-4.40;99.90;-5.70;100859;;;;558040;256;24163;-81
2024/01/07 03:46:21;;;;;;;5.27;4.00;;;-4.40;99.90;-5.70;100861;;;;552783;256;24143;-81
2024/01/07 03:48:49;;;;;;;6.93;4.53;;;-4.40;99.90;-5.70;100859;;;;560712;256;24173;-81
2024/01/07 03:51:13;;;;;;;6.07;4.57;;;-4.40;99.90;-5.70;100858;;;;560630;256;24162;-81
2024/01/07 03:53:42;;;;;;;8.63;4.87;;;-4.50;99.90;-5.70;100859;;;;558877;256;24127;-82
2024/01/07 03:56:10;;;;;;;4.77;4.20;;;-4.50;99.90;-5.80;100859;;;;558661;256;24156;-81
2024/01/07 03:58:38;;;;;;;6.47;4.40;;;-4.50;99.90;-5.70;100862;;;;559107;255;24143;-82
2024/01/07 04:01:06;;;;;;;5.23;4.60;;;-4.50;99.90;-5.80;100868;;;;559331;256;24153;-80
2024/01/07 04:03:34;;;;;;;4.57;4.10;;;-4.50;99.90;-5.80;100867;;;;558926;256;24138;-83
2024/01/07 04:06:02;;;;;;;4.77;4.20;;;-4.50;99.90;-5.80;100864;;;;558709;256;24175;-82
2024/01/07 04:08:30;;;;;;;5.50;4.63;;;-4.50;99.90;-5.80;100863;;;;558435;256;24157;-81
2024/01/07 04:10:57;;;;;;;6.23;4.03;;;-4.60;99.90;-5.80;100862;;;;558538;256;24184;-81
2024/01/07 04:13:25;;;;;;;8.83;5.30;;;-4.50;99.90;-5.80;100855;;;;559032;256;24199;-82
2024/01/07 04:15:53;;;;;;;5.13;4.53;;;-4.50;99.90;-5.80;100865;;;;552455;256;24147;-81
2024/01/07 04:18:21;;;;;;;7.13;5.03;;;-4.50;99.90;-5.80;100864;;;;558405;256;24144;-81
2024/01/07 04:20:49;;;;;;;6.23;4.47;;;-4.50;99.90;-5.80;100859;;;;558479;256;24127;-82
2024/01/07 04:23:18;;;;;;;6.17;4.33;;;-4.50;99.90;-5.80;100870;;;;558425;256;25210;-81
2024/01/07 04:25:46;;;;;;;4.63;3.93;;;-4.50;99.90;-5.70;100867;;;;560119;256;24153;-82
2024/01/07 04:28:14;;;;;;;4.53;3.70;;;-4.40;99.90;-5.70;100873;;;;552597;256;24183;-81
2024/01/07 04:30:43;;;;;;;5.63;4.23;;;-4.40;99.90;-5.70;100875;;;;557915;256;24142;-83
2024/01/07 04:33:11;;;;;;;6.40;4.27;;;-4.40;99.90;-5.70;100872;;;;558509;256;24149;-81
2024/01/07 04:35:39;;;;;;;6.60;4.90;;;-4.40;99.90;-5.70;100875;;;;557798;256;24158;-81
2024/01/07 04:38:08;;;;;;;5.00;4.10;;;-4.40;99.90;-5.60;100871;;;;558592;256;24156;-82
2024/01/07 04:40:35;;;;;;;5.93;4.67;;;-4.40;99.90;-5.60;100872;;;;559039;255;24161;-82
2024/01/07 04:43:03;;;;;;;5.27;4.10;;;-4.30;99.90;-5.60;100874;;;;558625;256;24155;-82
2024/01/07 04:45:31;;;;;;;6.00;4.27;;;-4.30;99.90;-5.50;100882;;;;552328;256;24148;-80
2024/01/07 04:47:59;;;;;;;8.23;5.23;;;-4.30;99.90;-5.50;100878;;;;558378;256;24179;-82
2024/01/07 04:50:27;;;;;;;6.40;5.10;;;-4.30;99.90;-5.60;100882;;;;558482;256;24165;-82
2024/01/07 04:52:55;;;;;;;7.00;4.57;;;-4.30;99.90;-5.60;100890;;;;558474;256;24191;-83
2024/01/07 04:55:23;;;;;;;5.20;4.27;;;-4.40;99.90;-5.70;100882;;;;558282;256;24120;-80
2024/01/07 04:57:51;;;;;;;6.20;5.17;;;-4.40;99.90;-5.70;100880;;;;557912;256;24140;-80
2024/01/07 05:00:19;;;;;;;6.37;5.30;;;-4.50;99.90;-5.80;100875;;;;558314;256;24163;-82
2024/01/07 05:02:47;;;;;;;6.20;4.50;;;-4.50;99.90;-5.80;100887;;;;553151;256;24153;-82
2024/01/07 05:05:15;;;;;;;5.47;4.07;;;-4.50;99.90;-5.80;100873;;;;558639;256;24162;-83
2024/01/07 05:07:46;;;;;;;5.83;4.60;;;-4.60;99.90;-5.90;100876;;;;558839;256;24158;-83
2024/01/07 05:10:11;;;;;;;5.77;5.07;;;-4.70;99.90;-5.90;100883;;;;551914;255;24201;-83
2024/01/07 05:12:40;;;;;;;8.60;5.50;;;-4.70;99.90;-5.90;100878;;;;560233;256;24143;-81
2024/01/07 05:15:09;;;;;;;6.60;5.13;;;-4.80;99.90;-6.00;100884;;;;559645;256;24129;-81
2024/01/07 05:17:37;;;;;;;5.70;5.07;;;-4.80;99.90;-6.20;100888;;;;552748;256;24153;-81
2024/01/07 05:20:06;;;;;;;9.03;5.50;;;-4.90;99.90;-6.20;100892;;;;559109;256;24162;-81
2024/01/07 05:22:33;;;;;;;7.43;4.93;;;-4.90;99.90;-6.20;100890;;;;551073;256;24177;-81
2024/01/07 05:25:00;;;;;;;9.00;5.83;;;-5.00;99.90;-6.20;100907;;;;549378;261;24179;-81
2024/01/07 05:27:29;;;;;;;8.00;5.37;;;-5.00;99.90;-6.30;100900;;;;563342;253;24176;-81
2024/01/07 05:29:58;;;;;;;9.00;5.97;;;-5.10;99.90;-6.40;100898;;;;560871;255;25181;-81
2024/01/07 05:32:26;;;;;;;6.67;5.23;;;-5.20;99.90;-6.40;100904;;;;558512;256;24130;-82
2024/01/07 05:34:54;;;;;;;5.13;3.93;;;-5.20;99.90;-6.50;100912;;;;558447;256;24141;-82
2024/01/07 05:37:22;;;;;;;7.27;5.40;;;-5.20;99.90;-6.60;100926;;;;558561;256;24164;-80
2024/01/07 05:39:49;;;;;;;8.37;4.93;;;-5.30;99.90;-6.70;100917;;;;558521;256;25189;-82
2024/01/07 05:42:18;;;;;;;6.70;4.97;;;-5.40;99.90;-6.80;100926;;;;559852;249;24155;-73
2024/01/07 05:44:46;;;;;;;10.83;6.83;;;-5.60;99.90;-6.80;100914;;;;555003;255;24131;-78
2024/01/07 05:47:15;;;;;;;8.57;6.30;;;-5.60;99.90;-6.90;100928;;;;563560;255;24118;-76
2024/01/07 05:49:43;;;;;;;11.10;7.03;;;-5.70;99.90;-7.00;100918;;;;555062;255;24111;-80
2024/01/07 05:52:11;;;;;;;8.00;6.33;;;-5.70;99.90;-7.00;100925;;;;555077;255;24148;-81
2024/01/07 05:54:39;;;;;;;7.13;5.93;;;-5.80;99.90;-7.10;100937;;;;554686;254;24114;-78
2024/01/07 05:57:07;;;;;;;10.93;6.90;;;-5.90;99.90;-7.20;100936;;;;563153;255;24168;-79
2024/01/07 05:59:35;;;;;;;11.70;7.13;;;-6.00;99.90;-7.30;100936;;;;555015;255;24145;-75
2024/01/07 06:02:03;;;;;;;8.23;6.00;;;-6.00;99.90;-7.40;100939;;;;554692;255;24119;-74
2024/01/07 06:04:31;;;;;;;10.83;6.40;;;-6.10;99.90;-7.40;100946;;;;554045;255;24118;-73
2024/01/07 06:06:59;;;;;;;6.27;3.77;;;-6.20;99.90;-7.50;100943;;;;554742;255;24111;-75
2024/01/07 06:09:27;;;;;;;7.97;5.50;;;-6.20;99.90;-7.50;100946;;;;554882;255;24126;-76
2024/01/07 10:23:13;;;;;;;12.00;7.47;;;-5.80;99.90;-7.20;101126;;;;626568;228;32634;-76
2024/01/07 10:25:43;;;;;;;10.90;7.93;;;-5.80;99.90;-7.30;101113;;;;611552;232;24008;-78
2024/01/07 10:28:08;;;;;;;6.53;5.43;;;-5.80;99.90;-7.40;101124;;;;585674;240;24054;-75
2024/01/07 10:30:36;;;;;;;5.47;4.70;;;-6.00;99.90;-7.50;101124;;;;588348;240;24143;-78
2024/01/07 10:33:06;;;;;;;8.43;6.20;;;-6.20;99.90;-7.60;101124;;;;590144;240;24129;-79
2024/01/07 10:35:34;;;;;;;9.10;6.73;;;-6.20;99.90;-7.60;101127;;;;587842;240;24048;-77
2024/01/07 10:38:02;;;;;;;9.57;5.70;;;-6.10;99.90;-7.60;101123;;;;596724;240;24081;-79
2024/01/07 10:40:34;;;;;;;10.30;5.93;;;-6.10;99.90;-7.60;101134;;;;583837;240;24103;-80
2024/01/07 10:43:00;;;;;;;6.30;5.63;;;-6.20;99.90;-7.70;101130;;;;589667;237;24046;-79
2024/01/07 10:45:28;;;;;;;6.77;5.80;;;-6.30;99.90;-7.70;101130;;;;594617;237;24037;-80
2024/01/07 10:47:56;;;;;;;7.78;5.65;;;-6.30;99.90;-7.90;101111;;;;589701;237;34998;-79
2024/01/07 10:50:24;;;;;;;8.20;5.27;;;-6.30;99.90;-8.00;101105;;;;594665;237;24084;-79
2024/01/07 10:52:52;;;;;;;6.93;5.67;;;-6.50;99.90;-8.00;101115;;;;595098;237;25301;-80
2024/01/07 10:55:20;;;;;;;9.20;5.97;;;-6.50;99.90;-7.90;101116;;;;595118;237;24055;-80
2024/01/07 10:57:51;;;;;;;8.80;6.00;;;-6.50;99.90;-7.90;101114;;;;594923;237;24088;-79
2024/01/07 11:00:21;;;;;;;8.33;6.47;;;-6.40;99.90;-7.90;101111;;;;595758;237;24089;-79
2024/01/07 11:03:10;;;;;;;7.13;6.03;;;-6.40;99.90;-7.90;101108;;;;595787;237;24076;-77
2024/01/07 11:06:02;;;;;;;7.27;5.80;;;-6.40;99.90;-7.80;101110;;;;595537;237;24028;-77
2024/01/07 11:08:51;;;;;;;8.23;6.70;;;-6.40;99.90;-7.70;101107;;;;592336;234;24068;-80
2024/01/07 11:11:21;;;;;;;7.17;5.67;;;-6.30;99.90;-7.60;101102;;;;598078;238;24088;-78
2024/01/07 11:13:47;;;;;;;7.93;6.13;;;-6.20;99.90;-7.60;101117;;;;585564;241;24163;-80
2024/01/07 11:16:16;;;;;;;9.67;6.27;;;-6.20;99.90;-7.50;101113;;;;589507;235;23989;-79
2024/01/07 11:18:50;;;;;;;9.60;5.80;;;-6.10;99.90;-7.50;101107;;;;587630;235;24099;-79
2024/01/07 11:21:27;;;;;;;9.67;6.40;;;-6.00;99.90;-7.40;101122;;;;596244;236;24056;-79
2024/01/07 11:23:53;;;;;;;9.43;5.97;;;-6.00;99.90;-7.50;101102;;;;600778;237;24060;-78
2024/01/07 11:26:22;;;;;;;7.83;6.20;;;-6.00;99.90;-7.50;101116;;;;601611;237;24114;-77
2024/01/07 11:28:53;;;;;;;9.47;7.30;;;-6.00;99.90;-7.50;101109;;;;598470;234;24064;-78
2024/01/07 11:31:24;;;;;;;8.77;6.53;;;-6.10;99.90;-7.60;101115;;;;601536;234;24047;-79
2024/01/07 11:33:52;;;;;;;14.63;8.00;;;-6.10;99.90;-7.70;101116;;;;597197;237;24078;-79
2024/01/07 11:36:21;;;;;;;10.23;6.77;;;-6.20;99.90;-7.70;101109;;;;593414;236;24031;-81
2024/01/07 11:38:48;;;;;;;9.93;7.33;;;-6.20;99.90;-7.70;101104;;;;605534;236;24031;-77
2024/01/07 11:41:17;;;;;;;8.73;5.80;;;-6.30;99.90;-7.70;101108;;;;592386;241;24081;-77
2024/01/07 11:43:58;;;;;;;6.43;5.60;;;-6.30;99.90;-7.90;101110;;;;594893;237;24054;-79
2024/01/07 11:46:26;;;;;;;9.37;6.83;;;-6.70;99.90;-7.90;101115;;;;595712;234;23969;-78
2024/01/07 11:48:57;;;;;;;10.57;6.97;;;-6.50;99.90;-8.00;101131;;;;603202;234;24036;-79
2024/01/07 11:51:21;;;;;;;7.10;6.07;;;-6.50;99.90;-8.10;101112;;;;598693;235;24028;-78
2024/01/07 11:53:53;;;;;;;9.07;6.37;;;-6.70;99.90;-8.10;101122;;;;601687;235;24109;-77
2024/01/07 11:56:17;;;;;;;7.83;5.93;;;-6.60;99.90;-8.20;101122;;;;601890;238;24035;-79
2024/01/07 11:58:45;;;;;;;10.33;6.80;;;-6.80;99.90;-8.20;101119;;;;593849;238;24113;-80
2024/01/07 12:01:13;;;;;;;6.73;5.80;;;-6.80;99.90;-8.30;101116;;;;574697;246;24060;-79
2024/01/07 12:03:41;;;;;;;9.17;6.57;;;-6.80;99.90;-8.40;101120;;;;571605;247;24129;-79
2024/01/07 12:06:13;;;;;;;8.30;6.83;;;-6.90;99.90;-8.40;101126;;;;581333;244;24071;-81
2024/01/07 12:08:40;;;;;;;9.30;6.87;;;-7.00;99.90;-8.40;101114;;;;571189;249;24059;-78
2024/01/07 12:11:10;;;;;;;8.33;7.07;;;-7.00;99.90;-8.40;101119;;;;582035;242;24154;-78
2024/01/07 12:13:35;;;;;;;8.00;5.37;;;-7.00;99.90;-8.50;101119;;;;580420;241;24042;-80
2024/01/07 12:16:07;;;;;;;9.77;6.63;;;-7.00;99.90;-8.50;101117;;;;577986;245;24087;-78
2024/01/07 12:18:31;;;;;;;10.83;7.63;;;-7.00;99.90;-8.50;101122;;;;571620;246;25209;-78
2024/01/07 12:21:02;;;;;;;9.03;7.20;;;-7.00;99.90;-8.50;101115;;;;561417;251;24145;-81
2024/01/07 12:23:27;;;;;;;7.70;6.13;;;-7.00;99.90;-8.40;101120;;;;561614;251;24174;-81
2024/01/07 12:25:59;;;;;;;10.20;6.78;;;-7.00;99.90;-8.40;101121;;;;566547;251;35512;-81
2024/01/07 12:28:23;;;;;;;9.77;5.97;;;-7.00;99.90;-8.40;101130;;;;561272;251;24194;-81
2024/01/07 12:30:51;;;;;;;9.33;6.10;;;-6.90;99.90;-8.40;101114;;;;561653;251;25185;-78
2024/01/07 12:33:21;;;;;;;8.77;7.37;;;-6.90;99.90;-8.40;101129;;;;571733;250;24214;-79
2024/01/07 12:35:49;;;;;;;8.43;6.33;;;-6.90;99.90;-8.50;101115;;;;561371;251;24177;-79
2024/01/07 12:38:17;;;;;;;10.23;7.00;;;-7.00;99.90;-8.50;101139;;;;561579;251;24125;-79
2024/01/07 12:40:45;;;;;;;13.90;7.83;;;-7.00;99.90;-8.50;101130;;;;560986;251;24143;-78
2024/01/07 12:43:13;;;;;;;11.17;6.83;;;-7.00;99.90;-8.50;101131;;;;561507;251;24148;-80
2024/01/07 12:45:41;;;;;;;9.30;6.60;;;-7.00;99.90;-8.50;101124;;;;562610;251;24121;-80
2024/01/07 12:48:12;;;;;;;9.27;6.83;;;-7.00;99.90;-8.50;101116;;;;562366;247;24168;-77
2024/01/07 12:50:37;;;;;;;8.67;6.73;;;-7.00;99.90;-8.50;101125;;;;561885;251;24134;-79
2024/01/07 12:53:08;;;;;;;8.57;6.83;;;-7.00;99.90;-8.50;101116;;;;571907;251;24125;-80
2024/01/07 12:55:33;;;;;;;11.17;7.00;;;-7.10;99.90;-8.50;101121;;;;562096;251;24176;-78
2024/01/07 12:58:00;;;;;;;7.27;6.23;;;-7.10;99.90;-8.60;101119;;;;561823;251;24234;-78
2024/01/07 13:00:29;;;;;;;10.23;6.97;;;-7.10;99.90;-8.60;101128;;;;561960;251;24205;-78
2024/01/07 13:03:00;;;;;;;11.93;6.97;;;-7.10;99.90;-8.60;101111;;;;561697;251;24187;-80
2024/01/07 13:05:25;;;;;;;8.87;7.10;;;-7.10;99.90;-8.60;101105;;;;561544;251;24203;-81
2024/01/07 13:07:53;;;;;;;9.10;7.00;;;-7.10;99.90;-8.60;101111;;;;561761;251;25261;-80
2024/01/07 13:10:24;;;;;;;10.23;7.37;;;-7.10;99.90;-8.60;101121;;;;564340;249;24148;-79
2024/01/07 13:12:49;;;;;;;10.73;5.97;;;-7.10;99.90;-8.60;101115;;;;561485;251;24142;-78
2024/01/07 13:15:20;;;;;;;9.40;6.87;;;-7.10;99.90;-8.60;101116;;;;561641;251;25240;-80
2024/01/07 13:17:45;;;;;;;11.73;7.30;;;-7.10;99.90;-8.60;101128;;;;561188;251;24202;-79
2024/01/07 13:20:13;;;;;;;10.60;7.13;;;-7.10;99.90;-8.70;101125;;;;561527;251;24164;-77
2024/01/07 13:22:44;;;;;;;10.47;7.30;;;-7.10;99.90;-8.70;101137;;;;561219;251;24126;-78
2024/01/07 13:25:09;;;;;;;11.97;7.87;;;-7.20;99.90;-8.70;101131;;;;561275;251;24131;-79
2024/01/07 13:27:36;;;;;;;11.50;8.13;;;-7.20;99.90;-8.70;101135;;;;561246;251;24142;-79
2024/01/07 13:30:04;;;;;;;11.70;7.93;;;-7.20;99.90;-8.70;101140;;;;561388;251;24176;-79
2024/01/07 13:32:36;;;;;;;9.87;8.27;;;-7.20;99.90;-8.70;101159;;;;561229;251;24121;-78
2024/01/07 13:35:00;;;;;;;9.57;7.50;;;-7.20;99.90;-8.70;101164;;;;560693;251;24126;-78
2024/01/07 13:37:28;;;;;;;11.87;7.33;;;-7.20;99.90;-8.80;101164;;;;561322;251;24156;-80
2024/01/07 13:39:59;;;;;;;9.00;7.27;;;-7.30;99.90;-8.80;101161;;;;561168;251;24114;-79
2024/01/07 13:42:24;;;;;;;9.83;7.57;;;-7.30;99.90;-8.80;101167;;;;570792;251;25182;-80
2024/01/07 13:44:53;;;;;;;10.20;7.33;;;-7.30;99.90;-8.80;101164;;;;561200;251;24146;-79
2024/01/07 13:47:21;;;;;;;8.67;6.80;;;-7.20;99.90;-8.80;101163;;;;556274;251;38404;-78
2024/01/07 13:49:49;;;;;;;8.37;6.33;;;-7.30;99.90;-8.80;101177;;;;565656;247;24118;-79
2024/01/07 13:52:17;;;;;;;10.07;7.33;;;-7.30;99.90;-8.80;101178;;;;571158;247;24102;-79
2024/01/07 13:54:45;;;;;;;8.83;7.70;;;-7.30;99.90;-8.80;101180;;;;581986;242;24131;-79
2024/01/07 13:57:13;;;;;;;12.50;8.53;;;-7.30;99.90;-8.80;101180;;;;580963;245;24113;-78
2024/01/07 13:59:41;;;;;;;10.20;7.73;;;-7.30;99.90;-8.80;101183;;;;580267;243;24069;-78
2024/01/07 14:02:09;;;;;;;9.05;7.60;;;-7.30;99.90;-8.80;101208;;;;578338;242;35147;-77
2024/01/07 14:04:37;;;;;;;11.40;8.00;;;-7.30;99.90;-8.80;101190;;;;586665;240;24032;-79
2024/01/07 14:07:05;;;;;;;12.03;7.63;;;-7.30;99.90;-8.80;101197;;;;586815;240;24092;-77
2024/01/07 14:09:33;;;;;;;10.27;6.87;;;-7.30;99.90;-8.80;101202;;;;586598;240;24070;-78
2024/01/07 14:12:02;;;;;;;14.30;8.57;;;-7.30;99.90;-8.70;101199;;;;587316;240;24052;-77
2024/01/07 14:14:28;;;;;;;10.33;7.77;;;-7.20;99.90;-8.70;101198;;;;586176;241;24039;-77
2024/01/07 14:16:56;;;;;;;9.63;7.90;;;-7.20;99.90;-8.70;101204;;;;585986;241;24047;-79
2024/01/07 14:19:24;;;;;;;11.13;8.10;;;-7.20;99.90;-8.70;101203;;;;586178;241;24014;-79
2024/01/07 14:21:52;;;;;;;10.77;8.10;;;-7.20;99.90;-8.70;101200;;;;586048;241;24113;-78
2024/01/07 14:24:20;;;;;;;11.07;7.20;;;-7.20;99.90;-8.80;101213;;;;586174;241;24035;-78
2024/01/07 14:26:49;;;;;;;13.20;7.33;;;-7.30;99.90;-8.80;101201;;;;584876;241;24059;-79
2024/01/07 14:29:17;;;;;;;8.10;6.30;;;-7.30;99.90;-8.90;101205;;;;576270;246;24077;-79
2024/01/07 14:31:45;;;;;;;9.73;7.10;;;-7.30;99.90;-8.90;101212;;;;582945;243;24044;-79
2024/01/07 14:34:14;;;;;;;12.97;8.37;;;-7.40;99.90;-9.00;101196;;;;565543;248;24120;-78
2024/01/07 14:36:45;;;;;;;10.30;7.70;;;-7.50;99.90;-9.00;101206;;;;579219;244;24128;-80
2024/01/07 14:39:10;;;;;;;10.00;7.77;;;-7.50;99.90;-8.90;101211;;;;577253;248;25121;-79
2024/01/07 14:41:38;;;;;;;10.70;7.57;;;-7.40;99.90;-8.90;101209;;;;570707;248;24142;-80
2024/01/07 14:44:06;;;;;;;11.27;8.13;;;-7.50;99.90;-9.00;101203;;;;570672;248;24102;-81
2024/01/07 14:46:34;;;;;;;9.17;7.30;;;-7.50;99.90;-9.00;101208;;;;573928;244;24151;-81
2024/01/07 14:49:02;;;;;;;11.60;7.53;;;-7.50;99.90;-9.10;101216;;;;568348;248;24117;-80
2024/01/07 14:51:31;;;;;;;12.10;7.47;;;-7.50;99.90;-9.10;101195;;;;579612;242;24084;-81
2024/01/07 14:53:58;;;;;;;12.87;9.30;;;-7.70;99.90;-9.20;101207;;;;568645;247;24124;-78
2024/01/07 14:56:27;;;;;;;11.77;8.37;;;-7.70;99.90;-9.20;101211;;;;570824;247;24095;-80
2024/01/07 14:58:59;;;;;;;11.57;8.83;;;-7.70;99.90;-9.20;101215;;;;570839;247;24114;-79
2024/01/07 15:01:24;;;;;;;12.30;8.63;;;-7.80;99.90;-9.30;101209;;;;570116;247;24147;-80
2024/01/07 15:03:53;;;;;;;15.80;9.03;;;-7.80;99.90;-9.30;101200;;;;571101;247;24144;-79
2024/01/07 15:06:21;;;;;;;13.70;8.87;;;-7.80;99.90;-9.40;101203;;;;571392;247;24141;-80
2024/01/07 15:08:50;;;;;;;12.77;7.97;;;-7.90;99.90;-9.50;101217;;;;572545;246;24119;-79
2024/01/07 15:11:18;;;;;;;11.77;8.53;;;-8.00;99.90;-9.50;101215;;;;572444;246;24092;-81
2024/01/07 15:13:48;;;;;;;11.17;8.57;;;-8.00;99.90;-9.60;101219;;;;571908;246;24098;-80
2024/01/07 15:16:13;;;;;;;10.90;7.97;;;-8.10;99.90;-9.70;101217;;;;571979;246;24113;-79
2024/01/07 15:18:45;;;;;;;11.60;8.80;;;-8.10;99.90;-9.70;101219;;;;571877;246;24121;-80
2024/01/07 15:21:09;;;;;;;11.70;9.10;;;-8.20;99.90;-9.70;101226;;;;571355;246;25237;-79
2024/01/07 15:23:37;;;;;;;14.60;8.50;;;-8.20;99.90;-9.80;101221;;;;573428;247;24131;-80